Time;durP1;ratioP1;P1;durP2;ratioP2;P2;SDS_P1;SDS_P2;PMS_P1;PMS_P2;Temp;Humidity;BMP_temperature;BMP_pressure;BME280_temperature;BME280_humidity;BME280_pressure;Samples;Min_cycle;Max_cycle;Signal;HPM_P1;HPM_P2
2023/07/14 04:02:36;;;;;;;5.62;3.08;;;;;;;20.29;100.00;100549.31;6551667;27;33875;-87
2023/07/14 04:05:44;;;;;;;3.78;2.90;;;;;;;20.33;100.00;100541.50;6515040;27;34838;-87
2023/07/14 04:08:54;;;;;;;3.90;2.85;;;;;;;20.51;100.00;100552.31;6548458;27;34163;-87
2023/07/14 04:11:57;;;;;;;5.35;3.22;;;;;;;20.47;100.00;100544.81;6534127;27;34134;-87
2023/07/14 04:15:00;;;;;;;3.60;3.00;;;;;;;20.55;100.00;100545.31;6514538;27;34512;-87
2023/07/14 04:18:03;;;;;;;5.55;2.90;;;;;;;20.61;100.00;100546.25;6532180;27;33573;-87
2023/07/14 04:21:10;;;;;;;5.35;3.22;;;;;;;20.71;100.00;100562.03;6532351;27;34458;-87
2023/07/14 04:24:13;;;;;;;3.85;2.85;;;;;;;20.71;100.00;100553.84;6551591;27;33504;-87
2023/07/14 04:27:16;;;;;;;3.97;2.95;;;;;;;20.79;100.00;100567.16;6532696;27;35036;-87
2023/07/14 04:30:21;;;;;;;4.03;3.00;;;;;;;20.82;100.00;100564.75;6552280;27;33744;-87
2023/07/14 04:33:24;;;;;;;4.55;2.85;;;;;;;20.92;100.00;100572.37;6533521;27;33894;-87
2023/07/14 04:36:28;;;;;;;6.10;2.90;;;;;;;21.05;100.00;100569.34;6552030;27;33772;-87
2023/07/14 04:39:33;;;;;;;4.07;3.12;;;;;;;21.06;100.00;100576.50;6514823;27;34107;-87
2023/07/14 04:42:36;;;;;;;3.25;2.95;;;;;;;21.06;100.00;100575.69;6533829;27;33551;-87
2023/07/14 04:45:40;;;;;;;6.18;3.30;;;;;;;21.11;100.00;100580.41;6532582;27;34370;-86
2023/07/14 04:48:44;;;;;;;3.42;3.10;;;;;;;21.08;100.00;100572.69;6516756;27;33786;-87
2023/07/14 04:51:48;;;;;;;5.68;3.30;;;;;;;21.10;100.00;100584.22;6533700;27;33827;-87
2023/07/14 04:54:51;;;;;;;3.85;3.47;;;;;;;21.07;100.00;100585.53;6554477;27;34843;-87
2023/07/14 04:57:53;;;;;;;4.75;3.70;;;;;;;21.16;100.00;100586.00;6541859;27;35389;-87
2023/07/14 05:00:56;;;;;;;3.72;3.25;;;;;;;21.27;100.00;100593.34;6549529;27;34657;-87
2023/07/14 05:03:59;;;;;;;4.57;4.00;;;;;;;21.26;100.00;100599.87;6506784;27;33535;-87
2023/07/14 05:07:02;;;;;;;7.62;3.70;;;;;;;21.42;100.00;100601.06;6524869;27;34574;-87
2023/07/14 05:10:06;;;;;;;3.92;3.40;;;;;;;21.56;100.00;100607.91;6506238;27;33982;-87
2023/07/14 05:13:09;;;;;;;6.70;3.67;;;;;;;21.71;100.00;100615.59;6504994;27;34022;-87
2023/07/14 05:16:12;;;;;;;6.50;3.80;;;;;;;21.66;100.00;100615.50;6524958;27;33816;-87
2023/07/14 05:19:15;;;;;;;4.45;3.72;;;;;;;21.52;100.00;100617.69;6488358;27;33635;-87
2023/07/14 05:22:18;;;;;;;6.32;3.40;;;;;;;21.49;100.00;100629.12;6505671;27;33878;-88
2023/07/14 05:25:23;;;;;;;3.92;3.53;;;;;;;21.48;100.00;100631.03;6507523;27;34374;-87
2023/07/14 05:28:26;;;;;;;7.35;3.87;;;;;;;21.50;100.00;100631.62;6505496;27;34686;-87
2023/07/14 05:31:28;;;;;;;4.45;3.92;;;;;;;21.58;100.00;100635.06;6527752;27;33691;-90
2023/07/14 05:34:31;;;;;;;8.02;3.95;;;;;;;21.44;100.00;100627.13;6491843;27;35005;-90
2023/07/14 05:37:38;;;;;;;8.45;4.32;;;;;;;21.27;100.00;100632.50;6511184;27;33905;-91
2023/07/14 05:44:36;;;;;;;5.53;3.85;;;;;;;21.14;100.00;100630.03;6549098;27;34545;-88
2023/07/14 05:47:44;;;;;;;6.07;3.80;;;;;;;21.33;100.00;100638.94;6552215;27;33626;-87
2023/07/14 05:50:48;;;;;;;4.20;3.30;;;;;;;21.62;100.00;100633.50;6533059;27;34688;-87
2023/07/14 05:53:51;;;;;;;5.22;3.45;;;;;;;21.78;100.00;100626.38;6552075;27;33916;-87
2023/07/14 05:56:56;;;;;;;6.43;3.58;;;;;;;22.01;100.00;100623.53;6567850;27;33999;-87
2023/07/14 05:59:59;;;;;;;4.68;3.28;;;;;;;22.02;100.00;100622.44;6551753;27;33723;-87
2023/07/14 06:03:02;;;;;;;5.32;3.03;;;;;;;22.21;100.00;100625.81;6552329;27;33436;-87
2023/07/14 06:06:07;;;;;;;3.35;3.05;;;;;;;22.44;100.00;100635.78;6533649;27;33549;-87
2023/07/14 06:09:13;;;;;;;4.62;3.20;;;;;;;22.61;96.98;100635.75;6533180;27;33631;-87
2023/07/14 06:12:16;;;;;;;3.67;3.20;;;;;;;22.82;93.98;100631.41;6551766;27;34578;-87
2023/07/14 06:15:19;;;;;;;5.28;2.83;;;;;;;23.06;94.34;100632.06;6526428;27;167077;-86
2023/07/14 06:18:22;;;;;;;9.63;4.12;;;;;;;23.14;88.66;100628.88;6515064;27;34515;-87
2023/07/14 06:21:25;;;;;;;5.80;3.00;;;;;;;23.40;89.91;100641.00;6552265;27;33366;-87
2023/07/14 06:24:28;;;;;;;8.23;3.62;;;;;;;23.58;89.08;100639.00;6516544;27;33935;-86
2023/07/14 06:27:33;;;;;;;4.68;3.17;;;;;;;23.61;88.23;100635.75;6551885;27;33855;-88
2023/07/14 06:30:37;;;;;;;4.62;3.08;;;;;;;23.87;88.51;100653.34;6548321;27;33765;-88
2023/07/14 06:33:40;;;;;;;4.05;2.85;;;;;;;23.80;87.37;100650.81;6535840;27;34737;-87
2023/07/14 06:36:43;;;;;;;5.87;2.85;;;;;;;23.85;87.54;100639.03;6551733;27;33874;-87
2023/07/14 06:39:46;;;;;;;2.80;2.60;;;;;;;23.92;85.86;100647.91;6532615;27;33505;-87
2023/07/14 06:42:52;;;;;;;3.15;2.83;;;;;;;23.92;82.65;100645.16;6515059;27;34233;-87
2023/07/14 06:45:54;;;;;;;3.37;3.08;;;;;;;24.09;84.91;100650.53;6532993;27;33562;-87
2023/07/14 06:48:57;;;;;;;3.97;2.87;;;;;;;24.16;82.64;100651.16;6552187;27;33596;-87
2023/07/14 06:52:20;;;;;;;3.20;2.90;;;;;;;24.30;83.32;100648.78;6552113;27;34523;-87
2023/07/14 06:55:23;;;;;;;2.70;2.50;;;;;;;24.30;79.74;100649.63;6515024;27;33459;-87
2023/07/14 06:58:27;;;;;;;3.90;2.67;;;;;;;24.35;78.64;100659.84;6552203;27;34901;-87
2023/07/14 07:01:30;;;;;;;4.00;2.72;;;;;;;24.57;78.10;100657.87;6532700;27;33752;-87
2023/07/14 07:04:34;;;;;;;4.68;2.65;;;;;;;24.66;74.54;100649.94;6517209;27;35065;-89
2023/07/14 07:07:38;;;;;;;2.90;2.60;;;;;;;24.69;74.58;100643.06;6552505;27;34387;-90
2023/07/14 07:10:43;;;;;;;4.60;2.30;;;;;;;24.49;73.16;100643.75;6532133;27;34222;-91
2023/07/14 07:13:46;;;;;;;2.70;2.50;;;;;;;24.74;74.01;100651.34;6551396;27;34685;-87
2023/07/14 07:16:49;;;;;;;3.08;2.75;;;;;;;24.93;74.91;100651.75;6552993;27;34657;-87
2023/07/14 07:19:52;;;;;;;3.17;2.65;;;;;;;24.90;72.40;100650.37;6516337;27;33942;-87
2023/07/14 07:22:55;;;;;;;3.53;2.78;;;;;;;25.04;75.03;100650.72;6547985;27;33463;-87
2023/07/14 07:25:58;;;;;;;2.70;2.35;;;;;;;24.97;74.60;100655.62;6534935;27;33847;-86
2023/07/14 07:29:01;;;;;;;3.15;2.20;;;;;;;25.19;74.54;100658.28;6514541;27;33814;-86
2023/07/14 07:32:04;;;;;;;3.30;2.20;;;;;;;25.03;70.68;100655.38;6514832;27;33878;-86
2023/07/14 07:35:08;;;;;;;4.20;2.75;;;;;;;25.19;70.73;100661.84;6532248;27;33777;-87
2023/07/14 07:38:12;;;;;;;3.45;2.60;;;;;;;25.23;72.52;100659.38;6532479;27;33807;-86
2023/07/14 07:41:17;;;;;;;3.75;2.50;;;;;;;25.33;72.64;100654.75;6532227;27;33677;-86
2023/07/14 07:44:20;;;;;;;2.92;2.55;;;;;;;25.28;72.93;100657.47;6550923;27;34596;-86
2023/07/14 07:47:23;;;;;;;2.97;2.67;;;;;;;25.28;72.88;100663.00;6532223;27;33748;-86
2023/07/14 07:50:26;;;;;;;2.62;2.42;;;;;;;25.40;72.77;100659.19;6514773;27;33370;-86
2023/07/14 07:53:29;;;;;;;3.45;2.45;;;;;;;25.34;71.87;100652.81;6514424;27;33825;-86
2023/07/14 07:56:32;;;;;;;2.83;2.40;;;;;;;25.56;74.25;100653.47;6532883;27;34037;-86
2023/07/14 07:59:35;;;;;;;3.25;2.15;;;;;;;25.74;71.46;100656.78;6551803;27;34633;-86
2023/07/14 08:02:41;;;;;;;2.67;2.47;;;;;;;25.76;69.00;100651.84;6531935;27;34588;-86
2023/07/14 08:05:44;;;;;;;2.65;2.45;;;;;;;25.76;68.74;100654.59;6532694;27;34674;-86
2023/07/14 08:08:47;;;;;;;3.22;2.17;;;;;;;26.01;66.92;100656.63;6532512;27;33938;-86
2023/07/14 08:11:56;;;;;;;2.87;2.30;;;;;;;26.23;64.60;100648.06;6534176;27;33762;-86
2023/07/14 08:14:58;;;;;;;2.47;2.28;;;;;;;26.40;66.05;100651.38;6558877;27;35000;-86
2023/07/14 08:18:02;;;;;;;1.80;1.70;;;;;;;26.17;62.95;100657.44;6536782;27;33673;-87
2023/07/14 08:21:05;;;;;;;2.50;2.30;;;;;;;26.24;64.66;100645.03;6551727;27;34041;-86
2023/07/14 08:24:09;;;;;;;3.28;2.05;;;;;;;26.45;64.12;100653.31;6567198;27;33932;-86
2023/07/14 08:27:14;;;;;;;2.97;2.10;;;;;;;26.61;63.54;100646.69;6530939;27;34859;-87
2023/07/14 08:30:20;;;;;;;2.97;2.17;;;;;;;26.62;62.48;100642.84;6532480;27;34122;-86
2023/07/14 08:33:25;;;;;;;6.55;2.35;;;;;;;26.63;62.97;100643.66;6515430;27;33394;-87
2023/07/14 08:36:28;;;;;;;2.50;2.30;;;;;;;26.77;62.74;100642.00;6551434;27;34644;-86
2023/07/14 08:39:32;;;;;;;4.18;2.20;;;;;;;27.03;63.20;100644.69;6532568;27;34116;-86
2023/07/14 08:42:42;;;;;;;2.70;2.50;;;;;;;27.08;60.77;100647.41;6532408;27;33991;-87
2023/07/14 08:45:54;;;;;;;2.50;2.22;;;;;;;27.37;61.82;100653.97;6551757;27;34992;-86
2023/07/14 08:49:26;;;;;;;2.80;2.22;;;;;;;27.43;60.55;100648.41;6551378;27;33782;-87
2023/07/14 08:52:34;;;;;;;2.67;2.33;;;;;;;27.41;63.44;100645.94;6546125;27;33980;-87
2023/07/14 08:55:39;;;;;;;5.85;2.67;;;;;;;26.97;59.19;100632.81;6551627;27;34015;-87
2023/07/14 08:58:44;;;;;;;2.78;2.42;;;;;;;26.93;59.91;100640.00;6532562;27;33879;-87
2023/07/14 09:01:52;;;;;;;3.65;2.40;;;;;;;27.40;61.58;100638.75;6551732;27;34741;-87
2023/07/14 09:05:01;;;;;;;3.17;2.30;;;;;;;27.57;59.95;100632.84;6551387;27;33983;-87
2023/07/14 09:08:09;;;;;;;4.80;2.80;;;;;;;27.53;59.97;100640.09;6551918;27;34023;-88
2023/07/14 09:11:31;;;;;;;2.78;2.12;;;;;;;27.63;60.43;100640.00;6535927;27;34798;-87
2023/07/14 09:14:37;;;;;;;5.00;2.50;;;;;;;27.74;58.95;100638.03;6572748;27;35186;-87
2023/07/14 09:17:52;;;;;;;3.03;2.72;;;;;;;27.89;58.37;100639.91;6557949;27;35579;-87
2023/07/14 09:21:13;;;;;;;2.83;2.50;;;;;;;28.17;59.02;100652.97;6555221;27;34371;-87
2023/07/14 09:24:18;;;;;;;2.80;2.10;;;;;;;28.16;58.47;100642.19;6558067;27;35306;-87
2023/07/14 09:27:26;;;;;;;4.70;2.70;;;;;;;28.24;57.35;100650.69;6550683;27;34222;-87
2023/07/14 09:30:30;;;;;;;6.95;2.67;;;;;;;28.72;55.17;100650.00;6561626;27;34276;-87
2023/07/14 09:33:47;;;;;;;5.80;2.50;;;;;;;29.09;51.40;100654.91;6538179;27;34029;-87
2023/07/14 09:36:52;;;;;;;2.90;2.47;;;;;;;29.03;49.73;100647.78;6553075;27;33939;-87
2023/07/14 09:40:05;;;;;;;2.72;2.15;;;;;;;29.15;51.33;100642.62;6532436;27;33474;-87
2023/07/14 09:43:10;;;;;;;3.45;2.30;;;;;;;29.25;48.81;100646.41;6551450;27;34221;-92
2023/07/14 09:46:19;;;;;;;3.58;2.12;;;;;;;29.65;49.42;100635.91;6535207;27;33833;-88
2023/07/14 09:49:33;;;;;;;2.30;2.10;;;;;;;29.69;46.29;100628.62;6516834;27;34010;-87
2023/07/14 09:52:52;;;;;;;3.17;2.08;;;;;;;29.64;48.71;100631.50;6551261;27;33989;-87
2023/07/14 09:56:10;;;;;;;2.58;2.37;;;;;;;29.56;47.06;100636.56;6551384;27;33832;-87
2023/07/14 09:59:21;;;;;;;4.05;2.47;;;;;;;29.73;47.66;100624.16;6551053;27;33880;-87
2023/07/14 10:02:32;;;;;;;3.12;1.90;;;;;;;29.59;47.39;100624.84;6531972;27;33636;-87
2023/07/14 10:05:44;;;;;;;2.85;2.12;;;;;;;29.97;50.86;100638.75;6551550;27;34659;-87
2023/07/14 10:08:54;;;;;;;4.15;2.22;;;;;;;29.97;47.50;100622.09;6551108;27;34104;-87
2023/07/14 10:12:04;;;;;;;3.55;2.40;;;;;;;30.30;45.81;100613.81;6551398;27;33576;-87
2023/07/14 10:15:23;;;;;;;5.00;2.67;;;;;;;30.67;46.92;100609.25;6550574;27;32925;-87
2023/07/14 10:18:27;;;;;;;2.50;2.30;;;;;;;30.74;46.09;100604.09;6551966;27;33651;-87
2023/07/14 10:21:33;;;;;;;4.43;2.25;;;;;;;31.09;44.01;100610.94;6552306;27;34876;-87
2023/07/14 10:24:37;;;;;;;2.87;2.60;;;;;;;31.12;43.11;100607.56;6552208;27;34634;-88
2023/07/14 10:27:40;;;;;;;2.78;2.30;;;;;;;30.97;43.44;100609.81;6552030;27;33822;-87
2023/07/14 10:30:56;;;;;;;3.72;2.47;;;;;;;30.79;42.00;100615.16;6532830;27;33848;-87
2023/07/14 10:34:14;;;;;;;5.22;2.60;;;;;;;30.18;43.77;100599.53;6552297;27;33554;-88
2023/07/14 10:37:21;;;;;;;5.12;2.55;;;;;;;30.53;43.71;100600.06;6551803;27;33887;-87
2023/07/14 10:40:29;;;;;;;3.47;2.30;;;;;;;30.94;43.35;100598.16;6552427;27;33710;-87
2023/07/14 10:43:34;;;;;;;3.70;2.50;;;;;;;31.39;40.78;100608.69;6552493;27;33797;-87
2023/07/14 10:46:42;;;;;;;2.47;2.25;;;;;;;31.86;40.33;100598.12;6552461;27;33401;-87
2023/07/14 10:50:17;;;;;;;2.90;2.60;;;;;;;31.55;40.84;100598.84;6552121;27;34598;-87
2023/07/14 10:53:28;;;;;;;2.12;1.98;;;;;;;30.99;41.36;100599.22;6546569;27;33592;-88
2023/07/14 10:56:37;;;;;;;2.30;2.08;;;;;;;30.66;42.15;100591.75;6552164;27;34642;-87
2023/07/14 10:59:54;;;;;;;2.67;2.10;;;;;;;31.51;42.35;100586.69;6551844;27;34393;-87
2023/07/14 11:03:18;;;;;;;2.42;2.22;;;;;;;30.80;42.38;100586.25;6551974;27;34599;-87
2023/07/14 11:06:28;;;;;;;2.65;2.28;;;;;;;30.35;44.06;100585.13;6553245;27;33529;-87
2023/07/14 11:09:31;;;;;;;2.62;2.20;;;;;;;30.08;45.58;100581.12;6552171;27;34000;-87
2023/07/14 11:12:42;;;;;;;2.22;2.03;;;;;;;30.52;43.65;100565.91;6534456;27;33394;-88
2023/07/14 11:16:06;;;;;;;2.30;2.10;;;;;;;31.91;42.18;100569.34;6552318;27;33757;-91
2023/07/14 11:19:20;;;;;;;2.40;2.20;;;;;;;33.31;37.63;100566.88;6551896;27;33852;-88
2023/07/14 11:22:35;;;;;;;;;;;;;;;33.70;37.06;100564.31;6560793;27;33931;-89
2023/07/14 11:25:52;;;;;;;2.33;2.12;;;;;;;34.58;34.67;100563.03;6571421;27;34649;-89
2023/07/14 11:29:12;;;;;;;2.20;2.00;;;;;;;34.87;33.87;100565.00;6562512;27;34864;-88
2023/07/14 11:32:21;;;;;;;2.33;1.98;;;;;;;35.29;31.39;100556.72;6551891;27;33799;-88
2023/07/14 11:35:55;;;;;;;2.28;2.08;;;;;;;36.66;30.87;100558.56;6552642;27;33790;-88
2023/07/14 11:39:21;;;;;;;2.10;1.92;;;;;;;37.25;29.30;100564.88;6552199;27;34002;-87
2023/07/14 11:42:34;;;;;;;2.40;1.83;;;;;;;38.66;27.51;100557.22;6552214;27;33912;-88
2023/07/14 11:45:39;;;;;;;1.60;1.50;;;;;;;38.36;27.65;100546.38;6555095;27;33938;-92
2023/07/14 11:48:58;;;;;;;2.67;1.92;;;;;;;36.93;30.38;100550.59;6532610;27;34039;-90
2023/07/14 11:52:13;;;;;;;1.83;1.73;;;;;;;35.21;31.73;100545.25;6551862;27;34891;-89
